EPKA weather

Kielce Maslow Airport
Kielce, Swietokrzyskie, Poland

Public forecast

Using degrees Celsius for public forecast. Weather courtesy of forecast.io.

METAR (pilot weather report)

Report is more than 6 hours old.

Closest report is Radom Airport, 34.7 nm (64.2 km) NNE. Retrieved 2019/03/20 15:00 UTC (10 hours ago):

EPRA 201500Z 29009KT CAVOK 09/M04 Q1031

TAF (pilot weather forecast)

Forecast is more than 12 hours old.

Closest forecast is Krak√≥w John Paul II International Airport, 61.0 nm (113.1 km) SW. Retrieved 2019/03/20 00:33 UTC (1 day ago):

TAF EPKK 202330Z 2100/2124 VRB02KT 6000 NSC TEMPO 2100/2106 2500 BR BECMG 2108/2111 26010KT BECMG 2115/2118 VRB02KT TEMPO 2118/2124 3000 BR